createdAt,value
2022-08-26T00:01:59.464Z,25.67
2022-08-26T00:05:03.978Z,23.02
2022-08-26T00:08:08.652Z,22.03
2022-08-26T00:11:16.418Z,22.43
2022-08-26T00:14:31.666Z,26.85
2022-08-26T00:17:35.134Z,25.00
2022-08-26T00:20:39.449Z,25.98
2022-08-26T00:23:46.453Z,21.73
2022-08-26T00:26:50.241Z,24.40
2022-08-26T00:29:55.028Z,24.63
2022-08-26T00:33:00.384Z,25.52
2022-08-26T00:36:06.459Z,28.20
2022-08-26T00:39:10.081Z,29.30
2022-08-26T00:42:13.721Z,26.17
2022-08-26T00:45:17.244Z,31.42
2022-08-26T00:48:24.311Z,25.98
2022-08-26T00:51:29.992Z,30.83
2022-08-26T00:54:42.383Z,29.67
2022-08-26T00:57:50.830Z,25.90
2022-08-26T01:00:55.190Z,27.75
2022-08-26T01:03:59.109Z,27.80
2022-08-26T01:07:04.900Z,26.33
2022-08-26T01:10:14.364Z,31.53
2022-08-26T01:13:18.268Z,28.13
2022-08-26T01:16:25.662Z,29.05
2022-08-26T01:19:43.611Z,26.80
2022-08-26T01:22:55.565Z,39.58
2022-08-26T01:26:21.977Z,24.47
2022-08-26T01:29:26.070Z,25.43
2022-08-26T01:32:31.520Z,26.50
2022-08-26T01:35:36.224Z,26.08
2022-08-26T01:38:40.421Z,32.05
2022-08-26T01:41:44.912Z,33.67
2022-08-26T01:44:59.682Z,28.00
2022-08-26T01:48:07.319Z,25.48
2022-08-26T01:51:12.473Z,28.45
2022-08-26T01:54:15.964Z,25.40
2022-08-26T01:57:20.409Z,23.30
2022-08-26T02:00:25.280Z,25.80
2022-08-26T02:03:30.932Z,29.58
2022-08-26T02:06:35.788Z,24.65
2022-08-26T02:09:41.690Z,30.90
2022-08-26T02:12:44.955Z,26.40
2022-08-26T02:15:49.163Z,30.67
2022-08-26T02:18:55.576Z,25.60
2022-08-26T02:22:03.471Z,32.75
2022-08-26T02:25:29.296Z,25.42
2022-08-26T02:28:40.253Z,22.83
2022-08-26T02:31:43.545Z,32.40
2022-08-26T02:34:47.164Z,31.02
2022-08-26T02:37:52.005Z,29.45
2022-08-26T02:40:56.358Z,29.58
2022-08-26T02:43:59.864Z,29.33
2022-08-26T02:47:03.663Z,27.50
2022-08-26T02:50:08.718Z,22.95
2022-08-26T02:53:14.286Z,25.77
2022-08-26T02:56:18.423Z,28.48
2022-08-26T02:59:24.490Z,29.80
2022-08-26T03:02:28.893Z,31.80
2022-08-26T03:05:32.177Z,24.08
2022-08-26T03:08:35.704Z,21.10
2022-08-26T03:11:39.332Z,23.08
2022-08-26T03:14:42.493Z,20.40
2022-08-26T03:17:47.198Z,31.67
2022-08-26T03:20:53.087Z,25.17
2022-08-26T03:23:58.626Z,17.77
2022-08-26T03:27:02.030Z,18.70
2022-08-26T03:30:30.286Z,24.37
2022-08-26T03:33:33.504Z,40.63
2022-08-26T03:36:36.747Z,25.73
2022-08-26T03:39:39.940Z,20.63
2022-08-26T03:42:45.457Z,28.73
2022-08-26T03:45:48.672Z,22.43
2022-08-26T03:48:55.153Z,24.33
2022-08-26T03:51:58.374Z,21.00
2022-08-26T03:55:01.904Z,19.27
2022-08-26T03:58:06.355Z,20.92
2022-08-26T04:01:09.574Z,30.03
2022-08-26T04:04:15.424Z,28.43
2022-08-26T04:07:18.931Z,20.48
2022-08-26T04:10:28.412Z,27.40
2022-08-26T04:13:32.590Z,26.88
2022-08-26T04:16:36.194Z,13.87
2022-08-26T04:19:40.825Z,28.27
2022-08-26T04:22:45.070Z,27.30
2022-08-26T04:25:48.220Z,29.17
2022-08-26T04:28:54.642Z,20.17
2022-08-26T04:31:57.923Z,25.87
2022-08-26T04:35:01.277Z,22.80
2022-08-26T04:38:05.821Z,19.33
2022-08-26T04:41:15.263Z,24.50
2022-08-26T04:44:20.809Z,25.67
2022-08-26T04:47:27.166Z,24.53
2022-08-26T04:50:33.701Z,29.73
2022-08-26T04:53:37.833Z,33.65
2022-08-26T04:56:44.113Z,22.67
2022-08-26T04:59:47.932Z,26.35
2022-08-26T05:02:55.762Z,37.40
2022-08-26T05:06:03.255Z,19.93
2022-08-26T05:09:06.933Z,26.23
2022-08-26T05:12:10.292Z,24.70
2022-08-26T05:15:13.471Z,28.17
2022-08-26T05:18:19.991Z,31.30
2022-08-26T05:21:26.044Z,30.30
2022-08-26T05:24:31.048Z,24.95
2022-08-26T05:27:34.164Z,25.67
2022-08-26T05:30:38.114Z,22.33
2022-08-26T05:33:42.098Z,27.23
2022-08-26T05:36:46.068Z,20.67
2022-08-26T05:39:51.141Z,24.85
2022-08-26T05:42:55.091Z,31.13
2022-08-26T05:46:07.139Z,30.15
2022-08-26T05:49:12.610Z,32.70
2022-08-26T05:52:16.200Z,30.47
2022-08-26T05:55:20.633Z,28.17
2022-08-26T05:58:24.629Z,23.77
2022-08-26T06:01:30.167Z,39.90
2022-08-26T06:04:33.396Z,35.83
2022-08-26T06:07:55.344Z,42.07
2022-08-26T06:11:02.328Z,31.17
2022-08-26T06:14:07.894Z,30.08
2022-08-26T06:17:11.218Z,32.47
2022-08-26T06:20:16.331Z,38.87
2022-08-26T06:23:39.289Z,41.23
2022-08-26T06:26:50.583Z,46.65
2022-08-26T06:29:55.496Z,46.80
2022-08-26T06:32:58.748Z,41.35
2022-08-26T06:36:02.281Z,43.83
2022-08-26T06:39:10.183Z,47.37
2022-08-26T06:42:13.543Z,37.33
2022-08-26T06:45:18.172Z,40.63
2022-08-26T06:48:21.631Z,43.90
2022-08-26T06:51:28.337Z,44.50
2022-08-26T06:54:31.877Z,40.43
2022-08-26T06:57:39.767Z,35.80
2022-08-26T07:00:47.328Z,32.65
2022-08-26T07:03:54.253Z,35.85
2022-08-26T07:07:00.304Z,36.63
2022-08-26T07:10:03.606Z,39.30
2022-08-26T07:13:08.035Z,37.33
2022-08-26T07:16:14.148Z,32.00
2022-08-26T07:19:29.939Z,33.42
2022-08-26T07:22:36.699Z,36.57
2022-08-26T07:25:42.144Z,35.57
2022-08-26T07:28:47.389Z,33.67
2022-08-26T07:31:50.568Z,31.63
2022-08-26T07:34:54.038Z,31.55
2022-08-26T07:37:57.557Z,29.90
2022-08-26T07:41:01.813Z,29.60
2022-08-26T07:44:05.306Z,32.15
2022-08-26T07:47:10.459Z,35.47
2022-08-26T07:50:49.294Z,33.83
2022-08-26T07:53:55.017Z,30.93
2022-08-26T07:56:58.313Z,36.63
2022-08-26T08:00:02.712Z,32.47
2022-08-26T08:03:15.457Z,33.00
2022-08-26T08:06:27.259Z,33.00
2022-08-26T08:09:31.258Z,31.67
2022-08-26T08:12:34.772Z,29.77
2022-08-26T08:15:38.106Z,30.83
2022-08-26T08:18:44.066Z,32.30
2022-08-26T08:21:47.343Z,28.45
2022-08-26T08:24:53.239Z,31.07
2022-08-26T08:27:56.970Z,30.60
2022-08-26T08:31:00.558Z,31.17
2022-08-26T08:34:03.919Z,33.15
2022-08-26T08:37:10.606Z,29.77
2022-08-26T08:40:18.854Z,28.33
2022-08-26T08:43:41.923Z,30.67
2022-08-26T08:46:47.781Z,30.48
2022-08-26T08:49:52.392Z,28.67
2022-08-26T08:53:18.680Z,34.30
2022-08-26T08:56:46.876Z,35.83
2022-08-26T09:00:02.348Z,36.93
2022-08-26T09:03:47.260Z,28.40
2022-08-26T09:06:55.573Z,30.17
2022-08-26T09:10:23.151Z,26.33
2022-08-26T09:13:27.585Z,27.03
2022-08-26T09:16:36.971Z,27.20
2022-08-26T09:19:52.693Z,29.15
2022-08-26T09:22:57.449Z,28.27
2022-08-26T09:26:03.988Z,33.78
2022-08-26T09:29:28.690Z,28.50
2022-08-26T09:32:32.220Z,28.90
2022-08-26T09:35:38.180Z,29.92
2022-08-26T09:38:42.105Z,25.80
2022-08-26T09:41:56.957Z,30.25
2022-08-26T09:45:10.455Z,30.00
2022-08-26T09:48:43.035Z,29.60
2022-08-26T09:51:46.397Z,27.02
2022-08-26T09:55:16.128Z,25.08
2022-08-26T09:58:41.924Z,30.48
2022-08-26T10:01:45.487Z,26.83
2022-08-26T10:04:54.370Z,30.07
2022-08-26T10:07:58.737Z,29.13
2022-08-26T10:11:17.780Z,28.27
2022-08-26T10:14:49.585Z,26.10
2022-08-26T10:18:15.829Z,34.83
2022-08-26T10:21:31.208Z,28.43
2022-08-26T10:24:51.915Z,28.00
2022-08-26T10:28:37.389Z,26.90
2022-08-26T10:32:03.611Z,31.77
2022-08-26T10:35:10.613Z,29.10
2022-08-26T10:38:18.487Z,26.43
2022-08-26T10:41:24.953Z,27.58
2022-08-26T10:44:34.345Z,27.27
2022-08-26T10:47:55.713Z,29.50
2022-08-26T10:51:02.196Z,25.83
2022-08-26T10:54:09.795Z,27.13
2022-08-26T10:57:57.537Z,29.85
2022-08-26T11:01:43.266Z,29.83
2022-08-26T11:04:57.704Z,31.08
2022-08-26T11:08:20.004Z,30.67
2022-08-26T11:11:42.382Z,29.87
2022-08-26T11:14:53.507Z,31.70
2022-08-26T11:18:10.619Z,37.33
2022-08-26T11:21:46.251Z,32.08
2022-08-26T11:24:56.796Z,37.10
2022-08-26T11:28:00.891Z,28.67
2022-08-26T11:31:10.105Z,31.65
2022-08-26T11:34:14.364Z,32.13
2022-08-26T11:40:28.186Z,32.20
2022-08-26T11:43:32.496Z,33.30
2022-08-26T11:46:37.643Z,26.65
2022-08-26T11:49:41.799Z,28.70
2022-08-26T11:53:01.945Z,32.33
2022-08-26T11:56:16.995Z,30.67
2022-08-26T12:02:42.257Z,30.92
2022-08-26T12:05:49.155Z,30.70
2022-08-26T12:08:55.473Z,27.42
2022-08-26T12:12:12.153Z,29.37
2022-08-26T12:15:17.035Z,33.33
2022-08-26T12:18:28.780Z,30.25
2022-08-26T12:21:34.834Z,39.15
2022-08-26T12:24:46.684Z,28.10
2022-08-26T12:27:53.701Z,27.30
2022-08-26T12:31:02.872Z,31.07
2022-08-26T12:34:17.918Z,33.70
2022-08-26T12:37:21.796Z,28.27
2022-08-26T12:40:39.576Z,30.70
2022-08-26T12:43:46.534Z,40.90
2022-08-26T12:46:49.975Z,34.87
2022-08-26T12:50:18.177Z,31.40
2022-08-26T12:53:23.061Z,32.47
2022-08-26T12:56:29.328Z,28.60
2022-08-26T12:59:32.703Z,24.97
2022-08-26T13:02:37.345Z,28.43
2022-08-26T13:05:40.549Z,26.35
2022-08-26T13:09:00.380Z,24.98
2022-08-26T13:12:03.587Z,28.95
2022-08-26T13:15:08.255Z,26.17
2022-08-26T13:18:11.454Z,32.00
2022-08-26T13:21:27.425Z,30.85
2022-08-26T13:24:36.898Z,33.08
2022-08-26T13:27:40.367Z,34.33
2022-08-26T13:30:46.680Z,31.87
2022-08-26T13:33:49.932Z,30.30
2022-08-26T13:36:56.217Z,30.52
2022-08-26T13:39:59.497Z,31.52
2022-08-26T13:43:02.906Z,28.02
2022-08-26T13:46:06.191Z,29.57
2022-08-26T13:49:09.788Z,33.80
2022-08-26T13:52:13.461Z,31.27
2022-08-26T13:55:17.165Z,36.75
2022-08-26T13:58:20.744Z,31.25
2022-08-26T14:01:24.565Z,29.00
2022-08-26T14:04:27.800Z,33.80
2022-08-26T14:07:30.887Z,35.38
2022-08-26T14:10:34.279Z,29.45
2022-08-26T14:13:37.711Z,27.55
2022-08-26T14:16:59.746Z,27.93
2022-08-26T14:20:04.273Z,32.27
2022-08-26T14:23:14.234Z,30.33
2022-08-26T14:26:28.967Z,30.02
2022-08-26T14:29:35.398Z,33.97
2022-08-26T14:32:43.440Z,31.53
2022-08-26T14:35:47.359Z,30.17
2022-08-26T14:38:53.225Z,31.17
2022-08-26T14:41:57.343Z,27.55
2022-08-26T14:45:04.814Z,32.17
2022-08-26T14:48:08.688Z,30.40
2022-08-26T14:51:12.447Z,27.40
2022-08-26T14:54:17.125Z,34.15
2022-08-26T14:57:20.396Z,30.60
2022-08-26T15:00:23.633Z,31.45
2022-08-26T15:03:28.113Z,31.43
2022-08-26T15:06:31.949Z,30.80
2022-08-26T15:09:37.392Z,32.15
2022-08-26T15:12:41.462Z,30.10
2022-08-26T15:15:44.645Z,32.50
2022-08-26T15:18:48.352Z,30.17
2022-08-26T15:21:51.744Z,34.03
2022-08-26T15:24:55.030Z,33.05
2022-08-26T15:27:58.317Z,35.28
2022-08-26T15:31:01.635Z,31.20
2022-08-26T15:34:07.653Z,35.00
2022-08-26T15:37:10.963Z,37.53
2022-08-26T15:40:14.250Z,34.17
2022-08-26T15:43:28.779Z,33.65
2022-08-26T15:46:34.215Z,40.05
2022-08-26T15:49:39.351Z,34.90
2022-08-26T15:52:42.593Z,36.47
2022-08-26T15:55:46.138Z,35.08
2022-08-26T15:58:49.322Z,37.97
2022-08-26T16:01:53.172Z,37.47
2022-08-26T16:04:56.441Z,36.03
2022-08-26T16:08:03.533Z,33.77
2022-08-26T16:14:24.761Z,31.63
2022-08-26T16:17:34.157Z,30.30
2022-08-26T16:20:55.284Z,28.53
2022-08-26T16:24:10.481Z,28.87
2022-08-26T16:27:13.929Z,33.30
2022-08-26T16:30:19.446Z,31.73
2022-08-26T16:33:29.590Z,33.67
2022-08-26T16:36:33.512Z,33.57
2022-08-26T16:39:40.189Z,31.87
2022-08-26T16:42:48.689Z,33.80
2022-08-26T16:45:51.832Z,32.45
2022-08-26T16:48:56.736Z,32.17
2022-08-26T16:51:59.886Z,33.60
2022-08-26T16:55:04.532Z,28.60
2022-08-26T16:58:07.797Z,31.42
2022-08-26T17:01:11.528Z,29.67
2022-08-26T17:04:14.755Z,29.67
2022-08-26T17:07:17.941Z,29.47
2022-08-26T17:10:21.815Z,38.53
2022-08-26T17:13:34.764Z,33.08
2022-08-26T17:16:39.640Z,29.98
2022-08-26T17:19:46.869Z,27.50
2022-08-26T17:22:51.859Z,33.77
2022-08-26T17:25:55.092Z,33.23
2022-08-26T17:28:59.071Z,33.38
2022-08-26T17:32:02.412Z,29.88
2022-08-26T17:35:06.600Z,28.25
2022-08-26T17:38:10.047Z,29.80
2022-08-26T17:41:16.017Z,30.00
2022-08-26T17:44:19.305Z,33.70
2022-08-26T17:47:22.546Z,36.20
2022-08-26T17:50:25.742Z,30.25
2022-08-26T17:53:29.423Z,28.73
2022-08-26T17:56:32.649Z,34.00
2022-08-26T17:59:35.798Z,28.88
2022-08-26T18:02:39.834Z,32.80
2022-08-26T18:05:47.178Z,39.88
2022-08-26T18:08:50.630Z,36.90
2022-08-26T18:11:53.867Z,36.93
2022-08-26T18:14:57.031Z,33.97
2022-08-26T18:18:01.878Z,38.08
2022-08-26T18:21:13.063Z,40.30
2022-08-26T18:24:16.318Z,35.63
2022-08-26T18:27:19.557Z,44.90
2022-08-26T18:30:23.128Z,43.13
2022-08-26T18:33:26.313Z,40.83
2022-08-26T18:36:35.820Z,47.40
2022-08-26T18:39:39.120Z,44.00
2022-08-26T18:42:42.411Z,40.73
2022-08-26T18:45:45.737Z,34.75
2022-08-26T18:48:50.953Z,37.40
2022-08-26T18:51:54.603Z,38.83
2022-08-26T18:54:57.780Z,47.13
2022-08-26T18:58:01.051Z,36.20
2022-08-26T19:01:04.474Z,38.03
2022-08-26T19:04:14.709Z,46.08
2022-08-26T19:07:20.504Z,37.28
2022-08-26T19:10:24.604Z,38.43
2022-08-26T19:13:27.917Z,38.07
2022-08-26T19:16:31.598Z,37.00
2022-08-26T19:19:34.961Z,38.50
2022-08-26T19:22:38.145Z,42.30
2022-08-26T19:25:48.710Z,41.10
2022-08-26T19:28:52.878Z,43.40
2022-08-26T19:31:56.578Z,45.05
2022-08-26T19:34:59.812Z,42.15
2022-08-26T19:38:03.841Z,51.78
2022-08-26T19:41:07.126Z,50.73
2022-08-26T19:44:35.817Z,44.83
2022-08-26T19:47:39.891Z,43.35
2022-08-26T19:50:45.128Z,47.05
2022-08-26T19:53:49.589Z,44.78
2022-08-26T19:56:52.692Z,40.07
2022-08-26T19:59:55.936Z,42.93
2022-08-26T20:02:59.724Z,41.53
2022-08-26T20:06:07.723Z,48.22
2022-08-26T20:09:10.892Z,48.58
2022-08-26T20:12:15.196Z,40.97
2022-08-26T20:15:20.441Z,40.73
2022-08-26T20:18:42.412Z,34.35
2022-08-26T20:21:45.622Z,35.30
2022-08-26T20:24:49.457Z,36.75
2022-08-26T20:27:52.632Z,35.93
2022-08-26T20:30:56.011Z,36.10
2022-08-26T20:33:59.463Z,34.97
2022-08-26T20:37:03.255Z,37.05
2022-08-26T20:40:09.142Z,37.97
2022-08-26T20:43:12.473Z,38.47
2022-08-26T20:46:18.197Z,35.77
2022-08-26T20:49:22.714Z,36.72
2022-08-26T20:52:25.998Z,33.72
2022-08-26T20:55:29.636Z,37.17
2022-08-26T20:58:33.070Z,62.37
2022-08-26T21:01:38.458Z,36.60
2022-08-26T21:04:48.589Z,34.45
2022-08-26T21:07:51.727Z,36.55
2022-08-26T21:10:55.984Z,34.75
2022-08-26T21:14:16.063Z,38.97
2022-08-26T21:17:20.541Z,36.63
2022-08-26T21:20:24.128Z,40.90
2022-08-26T21:23:29.293Z,35.70
2022-08-26T21:26:35.543Z,36.88
2022-08-26T21:29:38.709Z,38.00
2022-08-26T21:32:42.112Z,36.83
2022-08-26T21:35:58.121Z,38.13
2022-08-26T21:39:01.964Z,37.88
2022-08-26T21:42:05.603Z,41.17
2022-08-26T21:45:09.956Z,35.70
2022-08-26T21:48:13.149Z,31.43
2022-08-26T21:51:19.201Z,33.05
2022-08-26T21:54:23.591Z,31.80
2022-08-26T21:57:28.261Z,29.75
2022-08-26T22:00:33.849Z,33.40
2022-08-26T22:03:46.605Z,33.87
2022-08-26T22:06:53.701Z,33.88
2022-08-26T22:09:56.922Z,34.63
2022-08-26T22:13:00.106Z,36.92
2022-08-26T22:16:04.228Z,36.60
2022-08-26T22:19:07.713Z,41.07
2022-08-26T22:22:15.788Z,38.58
2022-08-26T22:25:19.218Z,33.60
2022-08-26T22:28:22.863Z,36.72
2022-08-26T22:31:37.336Z,39.40
2022-08-26T22:34:41.910Z,35.70
2022-08-26T22:37:45.141Z,34.28
2022-08-26T22:40:51.360Z,34.08
2022-08-26T22:43:57.204Z,39.38
2022-08-26T22:47:01.155Z,36.40
2022-08-26T22:50:06.000Z,36.43
2022-08-26T22:53:09.460Z,35.47
2022-08-26T22:56:14.145Z,34.88
2022-08-26T22:59:17.965Z,33.35
2022-08-26T23:02:21.259Z,36.67
2022-08-26T23:05:25.012Z,38.10
2022-08-26T23:08:28.564Z,32.95
2022-08-26T23:11:32.153Z,34.85
2022-08-26T23:14:35.343Z,38.05
2022-08-26T23:17:39.761Z,37.70
2022-08-26T23:20:43.584Z,34.30
2022-08-26T23:23:46.811Z,42.72
2022-08-26T23:26:50.008Z,35.70
2022-08-26T23:29:53.477Z,35.65
2022-08-26T23:32:57.013Z,36.20
2022-08-26T23:36:07.443Z,38.03
2022-08-26T23:39:12.878Z,39.58
2022-08-26T23:42:16.541Z,44.58
2022-08-26T23:45:20.884Z,41.53
2022-08-26T23:48:24.185Z,47.00
2022-08-26T23:51:46.057Z,50.60
2022-08-26T23:54:52.331Z,50.58
2022-08-26T23:57:55.501Z,50.65
